Gerald R. Ford International Airport
KGRR : rendu visible

Aérodrome :











RETROUVEZ-NOUS SUR...

 
LOGIN :

S'inscrire | Disclaimer

   EN    FR    IT 

 









Légende :    VFR   VFR Marginal   IFR   IFR Intensif   IFR Très Intensif
Visi : 
Plafond : 
>= 8 km
>= 3000ft
5 à 8 km
1000 à 3000 ft
1500m à 5 km
500 à 1000 ft
800 à 1500m
200 à 500 ft
< 800m
< 200 ft
Symboles :   Orages  Brouillard  Fortes neiges  Fortes précipitations  Vent > 20 kt






- Altitude de l'aérodrome : 794 ft
- Code IATA : GRR


KGRR - Gerald R. Ford International

DERNIER METAR :
  • 171153Z 08007KT 10SM BKN110 M07/M12 A3020 RMK AO2 SLP237 4/002 T10671122 11061 21089 51009

METARs EXPIRÉS :
  • 171053Z 08006KT 10SM BKN065 OVC110 M06/M12 A3020 RMK A02 SLP237 T10611122
  • 170953Z AUTO 10008KT 10SM OVC110 M07/M12 A3017 RMK AO2 SLP228 T10671122

TAF KGRR
Valide du 17 à 12h jusqu'au 18 à 12h UTC


171140Z 1712/1812 08006KT P6SM OVC110
FM172200 11013KT 2SM BR OVC025
FM172300 11013KT 1SM -SN OVC015
FM180000 11013KT 1 1/2SM -SN BR OVC007
FM180200 12012KT 1 1/2SM -RA BR OVC007
FM180600 17009KT 4SM -RA BR OVC007
FM181100 25013KT 2SM BR OVC007



MET'MAP, la Météo Aéronautique d'un coup d'oeil ! - Copyright ORBIFLY Décembre 2007 - Disclaimer

ORBIFLY MET'MAP TEAM :

Programmation & Développement : Alexandra Zaïnal
Sur une idée originale de : Baudouin d'Aumeries
Assistance à la programmation : Marc-Olivier Méhu
Soutien technique & logistique : Manuel Goepfert

Contact : metmap@orbifly.com




SOURCES & CREDITS :

   NOAA       Earth
Advisory